createdAt,value
2023-03-17T00:01:32.338Z,46.71
2023-03-17T00:04:22.115Z,46.95
2023-03-17T00:07:10.028Z,46.57
2023-03-17T00:09:56.400Z,46.51
2023-03-17T00:12:42.599Z,46.73
2023-03-17T00:15:28.554Z,46.81
2023-03-17T00:18:17.500Z,46.52
2023-03-17T00:21:03.444Z,47.10
2023-03-17T00:23:52.407Z,46.87
2023-03-17T00:26:38.946Z,46.98
2023-03-17T00:29:25.581Z,46.64
2023-03-17T00:32:21.311Z,47.24
2023-03-17T00:35:19.486Z,46.63
2023-03-17T00:38:07.043Z,47.29
2023-03-17T00:40:52.923Z,46.77
2023-03-17T00:43:41.977Z,46.88
2023-03-17T00:46:35.827Z,47.05
2023-03-17T00:49:24.413Z,47.06
2023-03-17T00:52:10.528Z,46.79
2023-03-17T00:54:56.196Z,47.04
2023-03-17T00:57:43.043Z,46.46
2023-03-17T01:00:30.366Z,46.72
2023-03-17T01:03:16.468Z,46.66
2023-03-17T01:06:05.283Z,47.19
2023-03-17T01:08:52.325Z,46.95
2023-03-17T01:11:39.511Z,47.20
2023-03-17T01:14:27.029Z,47.04
2023-03-17T01:17:15.360Z,46.90
2023-03-17T01:20:01.145Z,47.08
2023-03-17T01:22:46.936Z,47.21
2023-03-17T01:25:33.868Z,46.64
2023-03-17T01:28:20.401Z,46.75
2023-03-17T01:31:06.294Z,46.59
2023-03-17T01:33:52.942Z,46.56
2023-03-17T01:36:38.792Z,46.86
2023-03-17T01:39:25.955Z,46.68
2023-03-17T01:42:12.124Z,46.54
2023-03-17T01:45:00.025Z,46.78
2023-03-17T01:47:45.682Z,46.58
2023-03-17T01:50:31.906Z,46.83
2023-03-17T01:53:20.496Z,46.46
2023-03-17T01:56:08.029Z,46.48
2023-03-17T01:58:55.061Z,46.90
2023-03-17T02:01:43.727Z,46.38
2023-03-17T02:04:30.002Z,46.67
2023-03-17T02:07:16.056Z,46.63
2023-03-17T02:10:03.114Z,47.06
2023-03-17T02:12:53.824Z,46.88
2023-03-17T02:15:41.048Z,46.94
2023-03-17T02:18:27.425Z,46.75
2023-03-17T02:21:38.454Z,46.94
2023-03-17T02:24:26.603Z,46.69
2023-03-17T02:27:31.223Z,46.69
2023-03-17T02:30:19.223Z,46.37
2023-03-17T02:33:06.106Z,46.76
2023-03-17T02:35:52.094Z,46.43
2023-03-17T02:38:38.726Z,46.30
2023-03-17T02:41:24.597Z,46.94
2023-03-17T02:44:11.006Z,46.84
2023-03-17T02:46:56.833Z,46.85
2023-03-17T02:49:43.762Z,46.55
2023-03-17T02:52:29.684Z,46.40
2023-03-17T02:55:15.384Z,46.77
2023-03-17T02:58:02.609Z,46.82
2023-03-17T03:00:49.033Z,46.39
2023-03-17T03:03:35.213Z,46.44
2023-03-17T03:06:21.248Z,46.59
2023-03-17T03:09:07.369Z,46.40
2023-03-17T03:11:53.199Z,46.40
2023-03-17T03:14:38.906Z,46.36
2023-03-17T03:17:24.498Z,46.51
2023-03-17T03:20:11.664Z,46.82
2023-03-17T03:22:57.457Z,46.45
2023-03-17T03:25:43.233Z,46.63
2023-03-17T03:28:29.222Z,46.34
2023-03-17T03:31:15.396Z,46.62
2023-03-17T03:34:01.251Z,46.60
2023-03-17T03:36:47.018Z,46.56
2023-03-17T03:40:37.732Z,45.75
2023-03-17T03:43:25.872Z,46.12
2023-03-17T03:46:11.802Z,46.31
2023-03-17T03:48:57.842Z,46.54
2023-03-17T03:51:43.444Z,46.45
2023-03-17T03:54:29.159Z,46.64
2023-03-17T03:57:14.745Z,46.26
2023-03-17T04:00:00.788Z,46.41
2023-03-17T04:02:47.010Z,46.40
2023-03-17T04:05:33.304Z,46.00
2023-03-17T04:08:19.347Z,46.38
2023-03-17T04:11:05.132Z,46.39
2023-03-17T04:13:51.273Z,46.60
2023-03-17T04:16:37.296Z,46.03
2023-03-17T04:19:23.582Z,46.01
2023-03-17T04:22:12.022Z,46.47
2023-03-17T04:24:58.006Z,45.79
2023-03-17T04:27:43.857Z,45.97
2023-03-17T04:30:30.580Z,45.74
2023-03-17T04:33:16.896Z,46.15
2023-03-17T04:36:04.185Z,46.19
2023-03-17T04:38:50.509Z,45.73
2023-03-17T04:41:36.347Z,46.33
2023-03-17T04:44:22.254Z,45.84
2023-03-17T04:47:10.567Z,45.87
2023-03-17T04:49:56.312Z,45.62
2023-03-17T04:52:42.157Z,46.23
2023-03-17T04:55:28.301Z,45.93
2023-03-17T04:58:29.942Z,46.32
2023-03-17T05:01:18.053Z,45.93
2023-03-17T05:04:04.364Z,46.19
2023-03-17T05:06:50.105Z,46.06
2023-03-17T05:09:35.885Z,45.69
2023-03-17T05:12:21.815Z,45.82
2023-03-17T05:15:08.016Z,46.03
2023-03-17T05:17:53.726Z,46.05
2023-03-17T05:20:39.736Z,46.07
2023-03-17T05:23:25.936Z,46.02
2023-03-17T05:26:12.067Z,46.22
2023-03-17T05:28:57.729Z,46.16
2023-03-17T05:31:43.367Z,45.97
2023-03-17T05:34:29.174Z,45.69
2023-03-17T05:37:15.722Z,45.65
2023-03-17T05:40:01.744Z,45.44
2023-03-17T05:42:51.545Z,45.61
2023-03-17T05:45:39.311Z,45.98
2023-03-17T05:48:25.459Z,45.78
2023-03-17T05:51:11.580Z,46.26
2023-03-17T05:53:57.674Z,45.50
2023-03-17T05:56:43.261Z,45.90
2023-03-17T05:59:29.171Z,45.94
2023-03-17T06:02:15.742Z,45.59
2023-03-17T06:05:02.585Z,45.84
2023-03-17T06:07:54.859Z,45.53
2023-03-17T06:10:43.245Z,45.79
2023-03-17T06:13:29.287Z,45.55
2023-03-17T06:16:15.014Z,45.45
2023-03-17T06:19:01.245Z,45.91
2023-03-17T06:21:48.636Z,45.24
2023-03-17T06:24:34.598Z,45.65
2023-03-17T06:27:20.418Z,45.65
2023-03-17T06:30:08.320Z,45.48
2023-03-17T06:32:54.991Z,45.55
2023-03-17T06:35:41.485Z,45.69
2023-03-17T06:38:27.405Z,45.15
2023-03-17T06:41:13.723Z,45.38
2023-03-17T06:43:59.411Z,45.76
2023-03-17T06:46:45.054Z,45.58
2023-03-17T06:49:31.326Z,45.11
2023-03-17T06:52:17.039Z,45.34
2023-03-17T06:55:02.797Z,45.19
2023-03-17T06:57:50.892Z,45.60
2023-03-17T07:00:40.079Z,45.46
2023-03-17T07:03:26.730Z,45.27
2023-03-17T07:06:12.761Z,45.24
2023-03-17T07:09:00.901Z,45.08
2023-03-17T07:11:47.827Z,44.96
2023-03-17T07:14:35.698Z,45.00
2023-03-17T07:17:21.632Z,44.97
2023-03-17T07:20:07.951Z,45.12
2023-03-17T07:22:53.832Z,44.95
2023-03-17T07:25:42.184Z,44.75
2023-03-17T07:28:28.370Z,45.17
2023-03-17T07:31:14.595Z,44.97
2023-03-17T07:34:00.453Z,44.64
2023-03-17T07:36:46.543Z,44.66
2023-03-17T07:39:36.013Z,45.10
2023-03-17T07:42:21.901Z,44.92
2023-03-17T07:45:08.252Z,45.16
2023-03-17T07:47:54.213Z,44.80
2023-03-17T07:50:40.297Z,44.97
2023-03-17T07:53:26.508Z,44.46
2023-03-17T07:56:18.587Z,44.80
2023-03-17T07:59:04.687Z,44.51
2023-03-17T08:01:50.804Z,44.76
2023-03-17T08:04:37.633Z,44.61
2023-03-17T08:07:23.605Z,44.70
2023-03-17T08:10:52.129Z,44.32
2023-03-17T08:13:38.056Z,44.44
2023-03-17T08:16:24.138Z,44.80
2023-03-17T08:19:10.834Z,44.92
2023-03-17T08:21:56.598Z,44.52
2023-03-17T08:24:43.141Z,44.08
2023-03-17T08:27:29.807Z,44.21
2023-03-17T08:30:17.356Z,44.43
2023-03-17T08:33:03.628Z,44.17
2023-03-17T08:35:50.031Z,44.13
2023-03-17T08:38:37.560Z,43.70
2023-03-17T08:41:25.083Z,43.71
2023-03-17T08:44:11.046Z,44.56
2023-03-17T08:46:57.042Z,43.60
2023-03-17T08:49:43.801Z,44.06
2023-03-17T08:52:29.729Z,43.96
2023-03-17T08:55:16.348Z,43.77
2023-03-17T08:58:02.795Z,43.56
2023-03-17T09:00:49.135Z,43.82
2023-03-17T09:03:34.947Z,43.30
2023-03-17T09:06:21.338Z,42.71
2023-03-17T09:09:08.010Z,42.56
2023-03-17T09:11:54.315Z,42.79
2023-03-17T09:14:44.075Z,42.46
2023-03-17T09:17:30.332Z,42.75
2023-03-17T09:20:16.453Z,42.63
2023-03-17T09:23:06.534Z,42.69
2023-03-17T09:25:52.820Z,42.84
2023-03-17T09:28:39.040Z,42.70
2023-03-17T09:31:25.278Z,42.46
2023-03-17T09:34:11.415Z,42.52
2023-03-17T09:36:57.539Z,42.30
2023-03-17T09:39:43.619Z,42.34
2023-03-17T09:42:42.747Z,42.38
2023-03-17T09:45:34.718Z,42.93
2023-03-17T09:49:07.417Z,42.38
2023-03-17T09:51:53.541Z,42.70
2023-03-17T09:54:39.374Z,42.17
2023-03-17T09:57:39.104Z,42.16
2023-03-17T10:00:27.797Z,42.03
2023-03-17T10:03:13.979Z,42.16
2023-03-17T10:06:35.272Z,42.03
2023-03-17T10:09:26.634Z,41.87
2023-03-17T10:12:28.157Z,41.40
2023-03-17T10:15:24.302Z,41.60
2023-03-17T10:18:15.329Z,41.28
2023-03-17T10:21:04.102Z,41.66
2023-03-17T10:23:50.510Z,42.20
2023-03-17T10:26:40.624Z,41.50
2023-03-17T10:29:26.551Z,41.77
2023-03-17T10:32:13.565Z,41.94
2023-03-17T10:34:59.449Z,41.50
2023-03-17T10:37:47.504Z,41.75
2023-03-17T10:40:36.205Z,41.69
2023-03-17T10:43:23.088Z,41.60
2023-03-17T10:46:24.495Z,41.48
2023-03-17T10:49:17.011Z,41.20
2023-03-17T10:52:08.435Z,41.20
2023-03-17T10:54:54.651Z,41.19
2023-03-17T10:57:41.432Z,41.25
2023-03-17T11:00:30.015Z,42.04
2023-03-17T11:03:24.768Z,40.55
2023-03-17T11:06:17.050Z,40.96
2023-03-17T11:09:10.068Z,40.94
2023-03-17T11:12:18.569Z,41.26
2023-03-17T11:15:07.086Z,41.06
2023-03-17T11:18:00.512Z,41.24
2023-03-17T11:21:07.524Z,41.29
2023-03-17T11:24:14.912Z,41.73
2023-03-17T11:27:03.903Z,41.30
2023-03-17T11:30:08.675Z,41.25
2023-03-17T11:33:13.258Z,40.67
2023-03-17T11:36:09.691Z,41.11
2023-03-17T11:39:11.722Z,40.13
2023-03-17T11:41:57.714Z,40.78
2023-03-17T11:45:13.169Z,40.47
2023-03-17T11:48:20.342Z,40.11
2023-03-17T11:51:43.263Z,40.49
2023-03-17T11:55:00.278Z,40.09
2023-03-17T11:57:49.057Z,41.46
2023-03-17T12:00:42.139Z,41.03
2023-03-17T12:03:53.140Z,40.41
2023-03-17T12:06:44.148Z,40.10
2023-03-17T12:09:29.766Z,39.97
2023-03-17T12:12:21.500Z,39.91
2023-03-17T12:15:15.812Z,39.60
2023-03-17T12:18:15.601Z,38.45
2023-03-17T12:21:20.687Z,39.70
2023-03-17T12:24:17.369Z,40.57
2023-03-17T12:27:08.916Z,40.27
2023-03-17T12:30:03.667Z,39.89
2023-03-17T12:33:13.541Z,40.16
2023-03-17T12:36:01.302Z,39.90
2023-03-17T12:38:53.873Z,40.04
2023-03-17T12:41:56.780Z,39.63
2023-03-17T12:44:58.223Z,40.12
2023-03-17T12:47:50.238Z,39.13
2023-03-17T12:50:45.192Z,40.18
2023-03-17T12:53:33.760Z,40.27
2023-03-17T12:56:22.448Z,40.49
2023-03-17T12:59:17.115Z,40.67
2023-03-17T13:02:18.108Z,40.17
2023-03-17T13:05:10.158Z,40.72
2023-03-17T13:08:00.237Z,40.58
2023-03-17T13:10:48.653Z,40.55
2023-03-17T13:13:46.786Z,39.97
2023-03-17T13:16:41.328Z,40.13
2023-03-17T13:19:32.943Z,39.78
2023-03-17T13:22:21.684Z,40.01
2023-03-17T13:25:35.037Z,39.72
2023-03-17T13:28:51.157Z,38.98
2023-03-17T13:31:37.893Z,39.55
2023-03-17T13:34:23.671Z,39.73
2023-03-17T13:37:47.464Z,39.06
2023-03-17T13:40:48.321Z,36.96
2023-03-17T13:44:23.382Z,37.54
2023-03-17T13:47:24.708Z,36.63
2023-03-17T13:50:25.556Z,36.03
2023-03-17T13:53:13.728Z,37.00
2023-03-17T13:56:12.468Z,30.58
2023-03-17T13:59:02.351Z,34.63
2023-03-17T14:01:57.681Z,34.19
2023-03-17T14:04:59.965Z,33.91
2023-03-17T14:07:59.602Z,33.50
2023-03-17T14:10:54.334Z,31.12
2023-03-17T14:13:46.960Z,31.47
2023-03-17T14:16:36.948Z,33.19
2023-03-17T14:19:27.101Z,32.12
2023-03-17T14:22:25.907Z,27.43
2023-03-17T14:25:21.587Z,32.49
2023-03-17T14:28:11.497Z,33.07
2023-03-17T14:31:03.601Z,32.95
2023-03-17T14:33:53.116Z,33.43
2023-03-17T14:36:39.415Z,33.62
2023-03-17T14:39:26.683Z,34.18
2023-03-17T14:42:12.568Z,34.41
2023-03-17T14:45:04.778Z,34.84
2023-03-17T14:47:51.474Z,34.96
2023-03-17T14:50:37.209Z,35.19
2023-03-17T14:53:24.268Z,35.07
2023-03-17T14:56:10.597Z,35.51
2023-03-17T14:59:05.021Z,35.29
2023-03-17T15:01:56.576Z,35.27
2023-03-17T15:04:53.870Z,35.42
2023-03-17T15:07:42.183Z,35.73
2023-03-17T15:10:31.474Z,35.94
2023-03-17T15:13:17.469Z,36.44
2023-03-17T15:16:17.218Z,35.85
2023-03-17T15:19:28.990Z,36.23
2023-03-17T15:22:43.802Z,36.07
2023-03-17T15:25:43.201Z,35.85
2023-03-17T15:28:31.675Z,36.30
2023-03-17T15:31:17.469Z,36.18
2023-03-17T15:34:03.230Z,36.65
2023-03-17T15:36:49.972Z,36.60
2023-03-17T15:39:35.862Z,36.56
2023-03-17T15:42:28.690Z,36.46
2023-03-17T15:45:16.018Z,36.64
2023-03-17T15:48:02.107Z,36.96
2023-03-17T15:50:48.256Z,37.06
2023-03-17T15:53:33.929Z,37.49
2023-03-17T15:56:21.322Z,37.15
2023-03-17T15:59:07.394Z,37.13
2023-03-17T16:01:53.231Z,37.24
2023-03-17T16:04:39.345Z,37.29
2023-03-17T16:07:25.942Z,36.98
2023-03-17T16:10:20.148Z,37.18
2023-03-17T16:13:06.235Z,37.17
2023-03-17T16:16:01.011Z,37.46
2023-03-17T16:18:48.846Z,37.29
2023-03-17T16:21:34.906Z,37.33
2023-03-17T16:24:22.979Z,37.28
2023-03-17T16:27:14.623Z,37.47
2023-03-17T16:30:00.427Z,37.15
2023-03-17T16:32:46.460Z,37.24
2023-03-17T16:35:32.103Z,37.45
2023-03-17T16:38:20.612Z,37.88
2023-03-17T16:41:14.679Z,37.59
2023-03-17T16:44:01.244Z,37.39
2023-03-17T16:46:47.733Z,37.64
2023-03-17T16:49:33.336Z,37.33
2023-03-17T16:52:19.034Z,37.93
2023-03-17T16:55:05.169Z,37.70
2023-03-17T16:57:52.281Z,37.69
2023-03-17T17:00:38.271Z,38.02
2023-03-17T17:03:24.198Z,38.30
2023-03-17T17:06:11.438Z,38.21
2023-03-17T17:08:57.123Z,38.27
2023-03-17T17:11:42.734Z,38.29
2023-03-17T17:14:28.559Z,38.38
2023-03-17T17:17:14.346Z,38.61
2023-03-17T17:20:02.078Z,38.60
2023-03-17T17:22:48.763Z,38.32
2023-03-17T17:25:34.601Z,38.28
2023-03-17T17:28:23.329Z,38.42
2023-03-17T17:31:10.806Z,38.45
2023-03-17T17:33:56.991Z,38.85
2023-03-17T17:36:43.092Z,38.84
2023-03-17T17:39:30.992Z,38.95
2023-03-17T17:42:17.568Z,38.16
2023-03-17T17:45:04.011Z,38.99
2023-03-17T17:47:50.729Z,39.09
2023-03-17T17:50:46.812Z,38.95
2023-03-17T17:53:32.674Z,38.75
2023-03-17T17:56:18.707Z,38.92
2023-03-17T17:59:04.577Z,39.52
2023-03-17T18:01:50.764Z,39.20
2023-03-17T18:04:37.149Z,39.44
2023-03-17T18:07:23.674Z,39.18
2023-03-17T18:10:16.901Z,39.75
2023-03-17T18:13:02.824Z,39.49
2023-03-17T18:15:48.632Z,39.45
2023-03-17T18:18:35.255Z,39.67
2023-03-17T18:21:21.551Z,39.75
2023-03-17T18:24:07.784Z,39.44
2023-03-17T18:26:53.900Z,40.08
2023-03-17T18:29:40.142Z,39.82
2023-03-17T18:32:27.144Z,39.82
2023-03-17T18:35:17.283Z,40.07
2023-03-17T18:38:03.276Z,40.27
2023-03-17T18:40:49.286Z,40.01
2023-03-17T18:43:35.155Z,39.90
2023-03-17T18:46:21.493Z,40.55
2023-03-17T18:49:07.712Z,40.23
2023-03-17T18:51:54.874Z,40.73
2023-03-17T18:54:40.887Z,40.39
2023-03-17T18:57:27.711Z,40.50
2023-03-17T19:00:15.258Z,40.90
2023-03-17T19:03:01.167Z,40.68
2023-03-17T19:05:47.130Z,40.89
2023-03-17T19:08:32.951Z,40.79
2023-03-17T19:11:21.684Z,41.07
2023-03-17T19:14:14.040Z,41.46
2023-03-17T19:17:00.011Z,40.69
2023-03-17T19:19:46.409Z,41.11
2023-03-17T19:22:32.944Z,41.06
2023-03-17T19:25:20.017Z,41.41
2023-03-17T19:28:07.399Z,41.59
2023-03-17T19:30:53.535Z,41.94
2023-03-17T19:33:39.560Z,41.83
2023-03-17T19:36:25.586Z,42.43
2023-03-17T19:39:11.581Z,42.09
2023-03-17T19:41:59.221Z,41.91
2023-03-17T19:44:45.690Z,42.04
2023-03-17T19:47:31.445Z,42.47
2023-03-17T19:50:17.541Z,41.89
2023-03-17T19:53:03.960Z,42.36
2023-03-17T19:55:49.948Z,42.44
2023-03-17T19:58:36.101Z,42.40
2023-03-17T20:01:23.225Z,42.41
2023-03-17T20:04:11.544Z,42.43
2023-03-17T20:06:58.372Z,42.54
2023-03-17T20:09:48.245Z,42.33
2023-03-17T20:12:37.724Z,42.60
2023-03-17T20:15:23.504Z,42.46
2023-03-17T20:18:09.380Z,42.85
2023-03-17T20:20:57.550Z,42.41
2023-03-17T20:23:43.562Z,42.86
2023-03-17T20:26:29.215Z,42.70
2023-03-17T20:29:17.593Z,43.01
2023-03-17T20:32:04.860Z,42.70
2023-03-17T20:34:50.879Z,42.63
2023-03-17T20:37:37.380Z,42.85
2023-03-17T20:40:27.716Z,42.82
2023-03-17T20:43:14.179Z,43.10
2023-03-17T20:45:59.854Z,43.18
2023-03-17T20:48:49.289Z,43.51
2023-03-17T20:51:35.946Z,43.13
2023-03-17T20:54:23.416Z,43.21
2023-03-17T20:57:14.227Z,43.30
2023-03-17T21:00:00.251Z,42.88
2023-03-17T21:02:50.398Z,43.47
2023-03-17T21:05:36.852Z,43.01
2023-03-17T21:08:23.542Z,43.80
2023-03-17T21:11:16.189Z,43.73
2023-03-17T21:14:04.408Z,43.78
2023-03-17T21:16:50.751Z,43.29
2023-03-17T21:19:37.297Z,44.23
2023-03-17T21:22:23.194Z,44.62
2023-03-17T21:25:10.462Z,44.15
2023-03-17T21:27:56.621Z,44.39
2023-03-17T21:30:43.760Z,44.59
2023-03-17T21:33:30.170Z,44.75
2023-03-17T21:36:16.739Z,44.93
2023-03-17T21:39:02.928Z,44.95
2023-03-17T21:41:51.531Z,44.84
2023-03-17T21:44:37.435Z,45.00
2023-03-17T21:47:23.240Z,45.31
2023-03-17T21:50:09.671Z,44.66
2023-03-17T21:52:55.531Z,44.71
2023-03-17T21:55:41.568Z,45.25
2023-03-17T21:58:28.081Z,45.08
2023-03-17T22:01:14.495Z,44.98
2023-03-17T22:04:00.541Z,44.96
2023-03-17T22:06:46.499Z,44.95
2023-03-17T22:09:32.882Z,45.68
2023-03-17T22:12:19.630Z,45.40
2023-03-17T22:15:06.389Z,45.33
2023-03-17T22:17:53.248Z,45.54
2023-03-17T22:20:39.151Z,45.32
2023-03-17T22:23:25.908Z,45.56
2023-03-17T22:26:14.127Z,45.80
2023-03-17T22:29:00.505Z,45.93
2023-03-17T22:31:46.893Z,45.52
2023-03-17T22:34:32.807Z,45.80
2023-03-17T22:37:18.836Z,46.03
2023-03-17T22:40:06.604Z,45.75
2023-03-17T22:42:56.247Z,45.31
2023-03-17T22:45:42.355Z,45.68
2023-03-17T22:48:28.379Z,45.70
2023-03-17T22:51:18.982Z,46.39
2023-03-17T22:54:04.761Z,46.16
2023-03-17T22:56:50.904Z,46.28
2023-03-17T22:59:36.994Z,46.03
2023-03-17T23:02:23.298Z,45.81
2023-03-17T23:05:09.782Z,45.60
2023-03-17T23:07:55.910Z,46.11
2023-03-17T23:10:42.442Z,45.99
2023-03-17T23:13:28.639Z,46.71
2023-03-17T23:16:15.231Z,46.35
2023-03-17T23:19:01.312Z,46.60
2023-03-17T23:21:47.455Z,46.43
2023-03-17T23:24:33.122Z,46.19
2023-03-17T23:27:18.881Z,46.97
2023-03-17T23:30:05.982Z,46.24
2023-03-17T23:32:52.160Z,46.83
2023-03-17T23:35:38.210Z,46.79
2023-03-17T23:38:24.158Z,47.07
2023-03-17T23:41:12.800Z,46.65
2023-03-17T23:43:58.792Z,46.75
2023-03-17T23:46:45.232Z,47.14
2023-03-17T23:49:31.200Z,46.26
2023-03-17T23:52:17.872Z,46.98
2023-03-17T23:55:05.961Z,46.67
2023-03-17T23:57:52.138Z,46.34
